createdAt,value
2023-01-19T00:01:29.684Z,27.20
2023-01-19T00:03:57.762Z,27.20
2023-01-19T00:06:26.296Z,27.20
2023-01-19T00:08:54.678Z,27.20
2023-01-19T00:11:23.496Z,27.20
2023-01-19T00:13:52.115Z,27.20
2023-01-19T00:16:21.540Z,27.20
2023-01-19T00:18:51.472Z,27.20
2023-01-19T00:21:20.608Z,27.20
2023-01-19T00:23:49.373Z,27.20
2023-01-19T00:26:18.675Z,27.20
2023-01-19T00:28:47.263Z,27.20
2023-01-19T00:31:15.590Z,27.20
2023-01-19T00:33:43.658Z,27.20
2023-01-19T00:36:11.875Z,27.10
2023-01-19T00:38:40.114Z,27.10
2023-01-19T00:41:08.400Z,27.10
2023-01-19T00:43:36.513Z,27.10
2023-01-19T00:46:04.805Z,27.10
2023-01-19T00:48:33.041Z,27.10
2023-01-19T00:51:01.305Z,27.10
2023-01-19T00:53:29.390Z,27.00
2023-01-19T00:55:57.611Z,27.00
2023-01-19T00:58:25.791Z,27.00
2023-01-19T01:00:54.802Z,27.00
2023-01-19T01:03:22.989Z,27.10
2023-01-19T01:05:51.362Z,27.10
2023-01-19T01:08:19.562Z,27.10
2023-01-19T01:10:47.742Z,27.10
2023-01-19T01:13:21.301Z,27.10
2023-01-19T01:15:52.987Z,27.10
2023-01-19T01:18:22.278Z,27.00
2023-01-19T01:20:50.690Z,26.90
2023-01-19T01:23:19.388Z,26.90
2023-01-19T01:25:47.606Z,26.80
2023-01-19T01:28:15.832Z,26.90
2023-01-19T01:30:44.202Z,26.90
2023-01-19T01:33:12.454Z,26.90
2023-01-19T01:35:40.799Z,26.90
2023-01-19T01:38:09.993Z,26.90
2023-01-19T01:40:41.259Z,26.80
2023-01-19T01:43:18.513Z,26.80
2023-01-19T01:45:46.947Z,26.80
2023-01-19T01:48:31.065Z,26.80
2023-01-19T01:51:03.618Z,26.70
2023-01-19T01:53:34.604Z,26.70
2023-01-19T01:56:08.074Z,26.70
2023-01-19T01:58:38.430Z,26.60
2023-01-19T02:01:08.489Z,26.60
2023-01-19T02:03:36.879Z,26.60
2023-01-19T02:06:07.604Z,26.60
2023-01-19T02:09:02.226Z,26.60
2023-01-19T02:11:31.382Z,26.60
2023-01-19T02:13:59.888Z,26.60
2023-01-19T02:16:28.176Z,26.50
2023-01-19T02:18:57.601Z,26.50
2023-01-19T02:21:53.710Z,26.50
2023-01-19T02:24:22.652Z,26.40
2023-01-19T02:26:51.743Z,26.40
2023-01-19T02:29:22.931Z,26.40
2023-01-19T02:31:51.636Z,26.40
2023-01-19T02:34:22.048Z,26.40
2023-01-19T02:36:55.050Z,26.40
2023-01-19T02:39:35.129Z,26.40
2023-01-19T02:42:17.797Z,26.40
2023-01-19T02:44:49.652Z,26.30
2023-01-19T02:47:17.957Z,26.30
2023-01-19T02:49:54.555Z,26.30
2023-01-19T02:52:22.961Z,26.20
2023-01-19T02:55:17.417Z,26.20
2023-01-19T02:58:12.277Z,26.10
2023-01-19T03:01:09.291Z,25.90
2023-01-19T03:03:57.630Z,25.90
2023-01-19T03:07:10.152Z,25.90
2023-01-19T03:09:47.305Z,26.00
2023-01-19T03:12:27.881Z,26.00
2023-01-19T03:15:01.628Z,25.90
2023-01-19T03:17:32.765Z,26.00
2023-01-19T03:20:03.007Z,25.90
2023-01-19T03:22:31.800Z,25.90
2023-01-19T03:25:02.274Z,26.00
2023-01-19T03:27:37.732Z,26.00
2023-01-19T03:30:12.552Z,26.00
2023-01-19T03:32:50.393Z,25.90
2023-01-19T03:35:21.920Z,25.90
2023-01-19T03:37:54.691Z,25.90
2023-01-19T03:40:24.130Z,26.00
2023-01-19T03:42:52.843Z,26.00
2023-01-19T03:45:21.875Z,26.00
2023-01-19T03:47:50.535Z,26.00
2023-01-19T03:50:27.313Z,26.00
2023-01-19T03:53:13.517Z,26.00
2023-01-19T03:55:48.889Z,26.00
2023-01-19T03:58:17.203Z,26.00
2023-01-19T04:00:45.343Z,26.00
2023-01-19T04:03:18.419Z,26.00
2023-01-19T04:05:47.083Z,26.00
2023-01-19T04:08:15.316Z,26.00
2023-01-19T04:10:43.484Z,26.00
2023-01-19T04:13:11.824Z,26.00
2023-01-19T04:15:40.266Z,26.00
2023-01-19T04:18:09.276Z,25.90
2023-01-19T04:20:38.456Z,25.90
2023-01-19T04:23:06.802Z,25.90
2023-01-19T04:25:35.615Z,25.90
2023-01-19T04:28:05.045Z,25.90
2023-01-19T04:30:33.135Z,25.80
2023-01-19T04:33:01.670Z,25.70
2023-01-19T04:35:30.062Z,25.60
2023-01-19T04:37:58.283Z,25.60
2023-01-19T04:40:26.435Z,25.50
2023-01-19T04:42:54.663Z,25.50
2023-01-19T04:45:22.736Z,25.50
2023-01-19T04:47:53.046Z,25.50
2023-01-19T04:50:21.369Z,25.40
2023-01-19T04:52:50.883Z,25.50
2023-01-19T04:55:19.330Z,25.40
2023-01-19T04:57:47.469Z,25.40
2023-01-19T05:00:18.760Z,25.30
2023-01-19T05:02:47.267Z,25.30
2023-01-19T05:05:15.662Z,25.20
2023-01-19T05:07:43.991Z,25.30
2023-01-19T05:10:12.460Z,25.30
2023-01-19T05:12:40.989Z,25.30
2023-01-19T05:15:09.965Z,25.30
2023-01-19T05:17:38.805Z,25.30
2023-01-19T05:20:07.690Z,25.30
2023-01-19T05:22:35.879Z,25.30
2023-01-19T05:25:04.196Z,25.30
2023-01-19T05:27:32.433Z,25.30
2023-01-19T05:30:00.971Z,25.40
2023-01-19T05:32:29.135Z,25.40
2023-01-19T05:34:57.320Z,25.40
2023-01-19T05:37:25.808Z,25.40
2023-01-19T05:39:54.652Z,25.50
2023-01-19T05:42:22.891Z,25.50
2023-01-19T05:44:51.141Z,25.60
2023-01-19T05:47:19.488Z,25.60
2023-01-19T05:49:47.595Z,25.60
2023-01-19T05:52:15.806Z,25.60
2023-01-19T05:54:44.069Z,25.60
2023-01-19T05:57:12.294Z,25.60
2023-01-19T05:59:40.628Z,25.60
2023-01-19T06:02:10.155Z,25.60
2023-01-19T06:04:38.253Z,25.60
2023-01-19T06:07:06.760Z,25.60
2023-01-19T06:09:35.090Z,25.60
2023-01-19T06:12:03.485Z,25.60
2023-01-19T06:14:31.799Z,25.60
2023-01-19T06:17:00.002Z,25.60
2023-01-19T06:19:28.269Z,25.60
2023-01-19T06:21:56.579Z,25.60
2023-01-19T06:24:24.731Z,25.50
2023-01-19T06:26:52.861Z,25.60
2023-01-19T06:29:21.109Z,25.60
2023-01-19T06:31:49.361Z,25.60
2023-01-19T06:34:17.505Z,25.50
2023-01-19T06:36:46.046Z,25.50
2023-01-19T06:39:14.364Z,25.50
2023-01-19T06:41:42.623Z,25.50
2023-01-19T06:44:10.933Z,25.50
2023-01-19T06:46:41.310Z,25.40
2023-01-19T06:49:09.741Z,25.30
2023-01-19T06:51:38.087Z,25.30
2023-01-19T06:54:06.312Z,25.40
2023-01-19T06:56:34.797Z,25.30
2023-01-19T06:59:03.392Z,25.30
2023-01-19T07:01:31.617Z,25.30
2023-01-19T07:03:59.972Z,25.30
2023-01-19T07:06:30.801Z,25.30
2023-01-19T07:09:00.750Z,25.30
2023-01-19T07:11:33.169Z,25.20
2023-01-19T07:14:01.728Z,25.20
2023-01-19T07:16:29.979Z,25.20
2023-01-19T07:18:58.273Z,25.20
2023-01-19T07:21:28.927Z,25.20
2023-01-19T07:23:57.686Z,25.20
2023-01-19T07:26:25.791Z,25.20
2023-01-19T07:28:54.107Z,25.20
2023-01-19T07:31:24.396Z,25.30
2023-01-19T07:33:52.812Z,25.20
2023-01-19T07:36:21.158Z,25.20
2023-01-19T07:38:49.517Z,25.20
2023-01-19T07:41:17.762Z,25.20
2023-01-19T07:43:45.924Z,25.20
2023-01-19T07:46:14.482Z,25.20
2023-01-19T07:48:42.805Z,25.30
2023-01-19T07:51:12.883Z,25.30
2023-01-19T07:53:41.347Z,25.30
2023-01-19T07:56:09.928Z,25.20
2023-01-19T07:58:39.798Z,25.20
2023-01-19T08:01:12.901Z,25.30
2023-01-19T08:03:41.747Z,25.20
2023-01-19T08:06:22.288Z,25.20
2023-01-19T08:08:50.523Z,25.20
2023-01-19T08:11:18.809Z,25.20
2023-01-19T08:13:47.228Z,25.20
2023-01-19T08:16:15.636Z,25.20
2023-01-19T08:18:44.170Z,25.30
2023-01-19T08:21:12.343Z,25.30
2023-01-19T08:23:40.717Z,25.40
2023-01-19T08:26:41.183Z,25.40
2023-01-19T08:29:09.604Z,25.50
2023-01-19T08:31:37.913Z,25.60
2023-01-19T08:34:06.242Z,25.50
2023-01-19T08:36:35.133Z,25.60
2023-01-19T08:39:03.228Z,25.60
2023-01-19T08:41:31.556Z,25.60
2023-01-19T08:43:59.908Z,25.60
2023-01-19T08:46:28.317Z,25.60
2023-01-19T08:48:56.583Z,25.60
2023-01-19T08:51:24.881Z,25.60
2023-01-19T08:53:52.967Z,25.60
2023-01-19T08:56:21.372Z,25.50
2023-01-19T08:59:03.434Z,25.50
2023-01-19T09:01:36.770Z,25.50
2023-01-19T09:04:05.290Z,25.50
2023-01-19T09:06:33.527Z,25.50
2023-01-19T09:09:02.209Z,25.60
2023-01-19T09:11:30.652Z,25.60
2023-01-19T09:14:00.812Z,25.70
2023-01-19T09:16:29.206Z,25.60
2023-01-19T09:18:57.472Z,25.60
2023-01-19T09:21:25.926Z,25.60
2023-01-19T09:23:54.082Z,25.70
2023-01-19T09:26:22.306Z,25.70
2023-01-19T09:28:50.645Z,25.70
2023-01-19T09:31:19.050Z,25.80
2023-01-19T09:33:47.294Z,25.80
2023-01-19T09:36:15.540Z,25.90
2023-01-19T09:38:43.853Z,26.00
2023-01-19T09:41:21.605Z,26.10
2023-01-19T09:43:58.410Z,26.30
2023-01-19T09:46:40.878Z,26.40
2023-01-19T09:49:26.001Z,26.50
2023-01-19T09:51:57.069Z,26.60
2023-01-19T09:54:40.449Z,26.70
2023-01-19T09:57:14.849Z,26.70
2023-01-19T09:59:43.765Z,26.70
2023-01-19T10:02:37.699Z,26.90
2023-01-19T10:05:25.788Z,26.90
2023-01-19T10:08:21.891Z,26.90
2023-01-19T10:10:59.459Z,27.00
2023-01-19T10:13:49.427Z,27.00
2023-01-19T10:16:57.809Z,27.10
2023-01-19T10:19:36.647Z,27.10
2023-01-19T10:22:22.949Z,27.20
2023-01-19T10:24:56.103Z,27.30
2023-01-19T10:27:31.131Z,27.40
2023-01-19T10:30:01.604Z,27.50
2023-01-19T10:32:36.155Z,27.60
2023-01-19T10:35:15.922Z,27.70
2023-01-19T10:37:44.464Z,27.80
2023-01-19T10:40:12.632Z,27.90
2023-01-19T10:42:42.590Z,27.90
2023-01-19T10:45:27.924Z,27.90
2023-01-19T10:48:01.112Z,28.00
2023-01-19T10:50:34.277Z,28.10
2023-01-19T10:53:05.714Z,28.00
2023-01-19T10:55:39.237Z,28.10
2023-01-19T10:58:31.246Z,28.10
2023-01-19T11:01:18.781Z,28.20
2023-01-19T11:03:47.529Z,28.20
2023-01-19T11:06:15.668Z,28.20
2023-01-19T11:08:45.743Z,28.30
2023-01-19T11:11:14.982Z,28.40
2023-01-19T11:13:44.354Z,28.50
2023-01-19T11:16:27.758Z,28.60
2023-01-19T11:18:57.674Z,28.60
2023-01-19T11:21:27.547Z,28.40
2023-01-19T11:24:04.818Z,28.60
2023-01-19T11:26:55.684Z,28.50
2023-01-19T11:29:26.078Z,28.60
2023-01-19T11:31:55.509Z,28.70
2023-01-19T11:34:35.857Z,28.70
2023-01-19T11:37:19.399Z,28.70
2023-01-19T11:39:50.503Z,28.60
2023-01-19T11:42:20.051Z,28.70
2023-01-19T11:45:00.381Z,28.90
2023-01-19T11:47:43.246Z,28.90
2023-01-19T11:50:26.993Z,28.80
2023-01-19T11:53:18.078Z,29.00
2023-01-19T11:56:11.471Z,29.10
2023-01-19T11:58:42.266Z,28.80
2023-01-19T12:01:18.080Z,29.00
2023-01-19T12:03:55.430Z,29.10
2023-01-19T12:06:38.464Z,29.20
2023-01-19T12:09:24.824Z,29.30
2023-01-19T12:12:15.671Z,29.20
2023-01-19T12:14:58.609Z,29.30
2023-01-19T12:17:46.118Z,29.50
2023-01-19T12:20:40.268Z,29.40
2023-01-19T12:23:41.885Z,29.50
2023-01-19T12:26:28.690Z,29.60
2023-01-19T12:29:04.448Z,29.70
2023-01-19T12:31:33.028Z,29.70
2023-01-19T12:34:28.721Z,29.80
2023-01-19T12:37:03.059Z,29.60
2023-01-19T12:39:33.571Z,29.60
2023-01-19T12:42:12.538Z,29.80
2023-01-19T12:44:42.202Z,29.90
2023-01-19T12:47:16.167Z,29.80
2023-01-19T12:49:49.543Z,29.90
2023-01-19T12:52:48.378Z,29.80
2023-01-19T12:55:16.667Z,30.00
2023-01-19T12:58:01.720Z,29.90
2023-01-19T13:00:34.335Z,29.80
2023-01-19T13:03:06.839Z,29.90
2023-01-19T13:05:41.166Z,29.90
2023-01-19T13:08:09.471Z,29.90
2023-01-19T13:11:02.416Z,30.10
2023-01-19T13:13:42.364Z,30.30
2023-01-19T13:16:19.954Z,30.30
2023-01-19T13:19:02.303Z,30.20
2023-01-19T13:21:44.409Z,30.20
2023-01-19T13:24:18.156Z,30.40
2023-01-19T13:26:53.528Z,30.30
2023-01-19T13:29:40.388Z,30.40
2023-01-19T13:32:18.426Z,30.40
2023-01-19T13:34:55.574Z,30.50
2023-01-19T13:37:27.752Z,30.50
2023-01-19T13:39:57.049Z,30.70
2023-01-19T13:42:29.614Z,30.80
2023-01-19T13:45:17.225Z,30.70
2023-01-19T13:47:49.381Z,30.70
2023-01-19T13:50:27.758Z,30.70
2023-01-19T13:52:56.487Z,30.40
2023-01-19T13:55:25.876Z,30.50
2023-01-19T13:57:54.767Z,30.30
2023-01-19T14:00:28.847Z,30.20
2023-01-19T14:03:10.535Z,30.30
2023-01-19T14:05:40.766Z,30.30
2023-01-19T14:08:13.863Z,30.20
2023-01-19T14:10:54.287Z,30.20
2023-01-19T14:13:31.123Z,30.20
2023-01-19T14:16:14.213Z,30.20
2023-01-19T14:18:42.728Z,30.50
2023-01-19T14:21:13.924Z,30.50
2023-01-19T14:23:49.041Z,30.40
2023-01-19T14:26:38.836Z,30.60
2023-01-19T14:29:27.158Z,30.90
2023-01-19T14:32:01.584Z,30.80
2023-01-19T14:34:45.307Z,31.00
2023-01-19T14:37:21.588Z,30.60
2023-01-19T14:40:19.252Z,30.60
2023-01-19T14:42:55.097Z,30.50
2023-01-19T14:45:32.504Z,30.50
2023-01-19T14:48:04.358Z,30.70
2023-01-19T14:50:42.765Z,30.90
2023-01-19T14:53:17.542Z,31.00
2023-01-19T14:55:55.479Z,31.00
2023-01-19T14:58:26.256Z,31.00
2023-01-19T15:00:54.751Z,30.50
2023-01-19T15:03:34.886Z,30.70
2023-01-19T15:06:07.017Z,30.70
2023-01-19T15:08:35.779Z,30.80
2023-01-19T15:11:35.524Z,30.70
2023-01-19T15:14:04.090Z,30.30
2023-01-19T15:16:35.221Z,30.40
2023-01-19T15:19:03.645Z,30.60
2023-01-19T15:21:31.798Z,31.00
2023-01-19T15:24:00.056Z,30.80
2023-01-19T15:26:28.608Z,31.10
2023-01-19T15:28:57.365Z,30.70
2023-01-19T15:31:27.036Z,30.50
2023-01-19T15:33:55.533Z,30.80
2023-01-19T15:36:24.641Z,31.10
2023-01-19T15:38:52.888Z,31.00
2023-01-19T15:41:29.531Z,31.50
2023-01-19T15:43:58.566Z,31.60
2023-01-19T15:46:27.391Z,31.60
2023-01-19T15:48:55.679Z,31.80
2023-01-19T15:51:26.201Z,31.90
2023-01-19T15:53:55.718Z,31.60
2023-01-19T15:56:25.364Z,31.70
2023-01-19T15:58:54.541Z,32.00
2023-01-19T16:01:26.539Z,31.60
2023-01-19T16:03:54.843Z,31.70
2023-01-19T16:06:23.429Z,31.50
2023-01-19T16:08:51.816Z,31.60
2023-01-19T16:11:20.151Z,31.60
2023-01-19T16:13:48.711Z,31.60
2023-01-19T16:16:19.975Z,31.20
2023-01-19T16:18:48.893Z,31.60
2023-01-19T16:21:17.640Z,31.50
2023-01-19T16:23:46.513Z,31.50
2023-01-19T16:26:28.326Z,31.10
2023-01-19T16:29:01.597Z,31.30
2023-01-19T16:31:30.448Z,31.50
2023-01-19T16:33:58.718Z,31.40
2023-01-19T16:36:29.973Z,31.30
2023-01-19T16:39:03.222Z,31.20
2023-01-19T16:41:31.452Z,31.50
2023-01-19T16:43:59.711Z,31.80
2023-01-19T16:46:30.542Z,31.70
2023-01-19T16:49:21.936Z,31.40
2023-01-19T16:51:50.380Z,31.20
2023-01-19T16:54:21.216Z,31.10
2023-01-19T16:56:50.391Z,30.90
2023-01-19T16:59:19.657Z,30.80
2023-01-19T17:01:48.194Z,30.50
2023-01-19T17:04:16.582Z,30.10
2023-01-19T17:06:45.266Z,30.00
2023-01-19T17:09:14.152Z,30.00
2023-01-19T17:11:43.088Z,30.00
2023-01-19T17:14:19.578Z,30.10
2023-01-19T17:16:48.715Z,30.20
2023-01-19T17:19:19.202Z,29.90
2023-01-19T17:21:49.094Z,29.80
2023-01-19T17:24:17.877Z,29.80
2023-01-19T17:26:46.364Z,29.80
2023-01-19T17:29:15.036Z,29.60
2023-01-19T17:31:43.907Z,29.40
2023-01-19T17:34:12.235Z,29.40
2023-01-19T17:36:40.506Z,29.50
2023-01-19T17:39:10.527Z,29.40
2023-01-19T17:41:39.009Z,29.10
2023-01-19T17:44:08.016Z,29.20
2023-01-19T17:46:38.605Z,29.10
2023-01-19T17:49:08.404Z,29.00
2023-01-19T17:51:37.158Z,29.10
2023-01-19T17:54:05.417Z,29.00
2023-01-19T17:56:34.286Z,29.00
2023-01-19T17:59:02.799Z,29.00
2023-01-19T18:01:33.191Z,28.80
2023-01-19T18:04:01.583Z,28.60
2023-01-19T18:06:29.793Z,28.60
2023-01-19T18:08:58.533Z,28.60
2023-01-19T18:11:27.772Z,28.60
2023-01-19T18:13:56.180Z,28.40
2023-01-19T18:16:26.865Z,28.50
2023-01-19T18:18:56.671Z,28.50
2023-01-19T18:21:26.958Z,28.50
2023-01-19T18:24:03.807Z,28.40
2023-01-19T18:26:33.842Z,28.30
2023-01-19T18:29:02.372Z,28.20
2023-01-19T18:31:30.782Z,28.30
2023-01-19T18:33:59.172Z,28.30
2023-01-19T18:36:27.844Z,28.20
2023-01-19T18:38:56.153Z,28.10
2023-01-19T18:41:24.445Z,28.20
2023-01-19T18:43:52.872Z,28.10
2023-01-19T18:46:21.232Z,28.10
2023-01-19T18:48:49.499Z,28.10
2023-01-19T18:51:18.497Z,28.10
2023-01-19T18:53:47.002Z,28.00
2023-01-19T18:56:16.565Z,28.00
2023-01-19T18:58:45.688Z,28.00
2023-01-19T19:01:40.181Z,27.90
2023-01-19T19:04:08.767Z,28.00
2023-01-19T19:06:37.335Z,28.00
2023-01-19T19:09:06.159Z,27.90
2023-01-19T19:11:35.880Z,27.80
2023-01-19T19:14:04.277Z,27.80
2023-01-19T19:16:35.399Z,27.80
2023-01-19T19:19:04.352Z,27.70
2023-01-19T19:21:32.627Z,27.70
2023-01-19T19:24:00.757Z,27.70
2023-01-19T19:26:29.637Z,27.70
2023-01-19T19:28:58.108Z,27.70
2023-01-19T19:31:26.569Z,27.80
2023-01-19T19:33:56.876Z,27.70
2023-01-19T19:36:27.097Z,27.70
2023-01-19T19:38:55.679Z,27.70
2023-01-19T19:41:25.856Z,27.60
2023-01-19T19:43:55.050Z,27.60
2023-01-19T19:46:24.428Z,27.60
2023-01-19T19:48:54.079Z,27.60
2023-01-19T19:51:28.382Z,27.60
2023-01-19T19:53:58.942Z,27.70
2023-01-19T19:56:29.595Z,27.60
2023-01-19T19:58:59.718Z,27.60
2023-01-19T20:01:32.875Z,27.60
2023-01-19T20:04:07.922Z,27.60
2023-01-19T20:06:37.118Z,27.70
2023-01-19T20:09:05.905Z,27.60
2023-01-19T20:11:34.648Z,27.70
2023-01-19T20:14:08.278Z,27.70
2023-01-19T20:16:37.342Z,27.70
2023-01-19T20:19:06.099Z,27.70
2023-01-19T20:21:36.411Z,27.70
2023-01-19T20:24:08.616Z,27.70
2023-01-19T20:26:41.593Z,27.70
2023-01-19T20:29:10.891Z,27.70
2023-01-19T20:31:43.245Z,27.70
2023-01-19T20:34:14.870Z,27.70
2023-01-19T20:36:43.314Z,27.70
2023-01-19T20:39:11.404Z,27.70
2023-01-19T20:41:40.694Z,27.70
2023-01-19T20:44:08.842Z,27.60
2023-01-19T20:46:37.452Z,27.60
2023-01-19T20:49:05.830Z,27.60
2023-01-19T20:51:34.442Z,27.60
2023-01-19T20:54:02.733Z,27.60
2023-01-19T20:56:31.056Z,27.50
2023-01-19T20:59:00.164Z,27.50
2023-01-19T21:01:29.003Z,27.60
2023-01-19T21:03:57.411Z,27.60
2023-01-19T21:06:25.745Z,27.60
2023-01-19T21:08:54.632Z,27.60
2023-01-19T21:11:22.986Z,27.60
2023-01-19T21:13:52.320Z,27.60
2023-01-19T21:16:20.536Z,27.60
2023-01-19T21:18:48.872Z,27.60
2023-01-19T21:21:29.357Z,27.70
2023-01-19T21:24:00.521Z,27.70
2023-01-19T21:26:29.924Z,27.60
2023-01-19T21:29:02.715Z,27.60
2023-01-19T21:31:31.432Z,27.60
2023-01-19T21:34:00.130Z,27.60
2023-01-19T21:36:28.504Z,27.60
2023-01-19T21:38:56.997Z,27.60
2023-01-19T21:41:25.436Z,27.60
2023-01-19T21:43:53.917Z,27.60
2023-01-19T21:46:24.727Z,27.50
2023-01-19T21:48:53.055Z,27.60
2023-01-19T21:51:22.930Z,27.50
2023-01-19T21:53:52.100Z,27.50
2023-01-19T21:56:21.496Z,27.50
2023-01-19T21:58:49.625Z,27.50
2023-01-19T22:01:18.102Z,27.50
2023-01-19T22:03:46.474Z,27.50
2023-01-19T22:06:15.604Z,27.50
2023-01-19T22:08:44.043Z,27.50
2023-01-19T22:11:14.472Z,27.60
2023-01-19T22:13:42.941Z,27.60
2023-01-19T22:16:14.587Z,27.60
2023-01-19T22:18:45.402Z,27.60
2023-01-19T22:21:14.897Z,27.60
2023-01-19T22:23:43.616Z,27.50
2023-01-19T22:26:12.653Z,27.50
2023-01-19T22:28:41.250Z,27.50
2023-01-19T22:31:14.111Z,27.50
2023-01-19T22:33:43.613Z,27.50
2023-01-19T22:36:19.917Z,27.50
2023-01-19T22:38:53.585Z,27.40
2023-01-19T22:41:25.839Z,27.40
2023-01-19T22:43:56.579Z,27.40
2023-01-19T22:46:28.366Z,27.40
2023-01-19T22:48:57.147Z,27.40
2023-01-19T22:51:27.153Z,27.40
2023-01-19T22:53:55.666Z,27.40
2023-01-19T22:56:26.489Z,27.40
2023-01-19T22:58:55.448Z,27.40
2023-01-19T23:01:26.119Z,27.30
2023-01-19T23:03:55.844Z,27.30
2023-01-19T23:06:29.533Z,27.40
2023-01-19T23:09:00.707Z,27.40
2023-01-19T23:11:41.170Z,27.40
2023-01-19T23:14:12.999Z,27.30
2023-01-19T23:16:41.878Z,27.40
2023-01-19T23:19:12.229Z,27.40
2023-01-19T23:21:41.780Z,27.30
2023-01-19T23:24:10.222Z,27.30
2023-01-19T23:26:38.559Z,27.30
2023-01-19T23:29:15.587Z,27.30
2023-01-19T23:31:46.909Z,27.30
2023-01-19T23:34:15.499Z,27.30
2023-01-19T23:36:44.270Z,27.30
2023-01-19T23:39:18.514Z,27.30
2023-01-19T23:41:47.435Z,27.30
2023-01-19T23:44:16.134Z,27.20
2023-01-19T23:46:44.352Z,27.20
2023-01-19T23:49:13.497Z,27.20
2023-01-19T23:51:42.286Z,27.20
2023-01-19T23:54:10.671Z,27.30
2023-01-19T23:56:40.051Z,27.20
2023-01-19T23:59:11.220Z,27.20
